createdAt,value
2019-03-11T00:00:20.289Z,41.90
2019-03-11T00:02:48.799Z,42.60
2019-03-11T00:05:17.242Z,43.60
2019-03-11T00:07:45.767Z,44.40
2019-03-11T00:10:14.597Z,44.90
2019-03-11T00:12:43.409Z,45.30
2019-03-11T00:15:11.857Z,46.20
2019-03-11T00:17:40.340Z,46.60
2019-03-11T00:20:09.418Z,46.80
2019-03-11T00:22:37.824Z,46.80
2019-03-11T00:25:06.993Z,46.40
2019-03-11T00:27:35.505Z,46.30
2019-03-11T00:30:06.444Z,45.40
2019-03-11T00:32:35.126Z,45.70
2019-03-11T00:35:04.004Z,45.50
2019-03-11T00:37:32.810Z,45.30
2019-03-11T00:40:01.333Z,45.30
2019-03-11T00:42:29.752Z,45.10
2019-03-11T00:44:58.281Z,45.10
2019-03-11T00:47:26.684Z,45.20
2019-03-11T00:49:55.098Z,44.80
2019-03-11T00:52:23.524Z,44.70
2019-03-11T00:54:52.020Z,44.70
2019-03-11T00:57:20.430Z,43.70
2019-03-11T00:59:48.858Z,42.80
2019-03-11T01:02:17.259Z,42.60
2019-03-11T01:04:45.676Z,41.80
2019-03-11T01:07:14.073Z,41.30
2019-03-11T01:09:42.522Z,40.80
2019-03-11T01:12:11.022Z,40.20
2019-03-11T01:14:39.511Z,40.00
2019-03-11T01:17:07.961Z,39.40
2019-03-11T01:19:36.824Z,39.10
2019-03-11T01:22:05.330Z,38.60
2019-03-11T01:24:33.742Z,38.70
2019-03-11T01:27:02.155Z,38.80
2019-03-11T01:29:30.889Z,38.60
2019-03-11T01:31:59.314Z,38.50
2019-03-11T01:34:28.027Z,38.30
2019-03-11T01:36:56.488Z,38.50
2019-03-11T01:39:24.943Z,38.60
2019-03-11T01:41:53.372Z,38.50
2019-03-11T01:44:21.797Z,37.90
2019-03-11T01:46:50.197Z,37.60
2019-03-11T01:49:18.605Z,38.00
2019-03-11T01:51:47.017Z,37.70
2019-03-11T01:54:15.490Z,37.80
2019-03-11T01:56:43.897Z,37.40
2019-03-11T01:59:12.352Z,37.30
2019-03-11T02:01:40.909Z,37.20
2019-03-11T02:04:09.309Z,36.80
2019-03-11T02:06:37.739Z,36.40
2019-03-11T02:09:06.525Z,36.80
2019-03-11T02:11:34.933Z,35.80
2019-03-11T02:14:03.435Z,36.00
2019-03-11T02:16:31.896Z,36.00
2019-03-11T02:19:00.352Z,36.20
2019-03-11T02:21:28.805Z,35.90
2019-03-11T02:23:57.210Z,35.50
2019-03-11T02:26:25.629Z,35.40
2019-03-11T02:28:54.040Z,35.20
2019-03-11T02:31:22.909Z,34.80
2019-03-11T02:33:51.327Z,35.00
2019-03-11T02:36:19.861Z,35.00
2019-03-11T02:38:48.330Z,35.00
2019-03-11T02:41:16.741Z,34.80
2019-03-11T02:43:45.158Z,35.00
2019-03-11T02:46:13.608Z,35.10
2019-03-11T02:48:41.993Z,35.10
2019-03-11T02:51:10.442Z,34.70
2019-03-11T02:53:38.909Z,35.10
2019-03-11T02:56:07.350Z,35.00
2019-03-11T02:58:35.745Z,35.00
2019-03-11T03:01:08.612Z,35.30
2019-03-11T03:03:41.433Z,35.40
2019-03-11T03:06:14.148Z,35.30
2019-03-11T03:08:42.867Z,35.10
2019-03-11T03:11:11.438Z,35.30
2019-03-11T03:13:39.899Z,34.90
2019-03-11T03:16:08.355Z,35.00
2019-03-11T03:18:36.767Z,35.10
2019-03-11T03:21:05.447Z,35.50
2019-03-11T03:23:33.901Z,35.20
2019-03-11T03:26:02.319Z,35.60
2019-03-11T03:28:30.778Z,35.00
2019-03-11T03:30:59.384Z,35.50
2019-03-11T03:33:27.968Z,35.30
2019-03-11T03:35:56.401Z,35.60
2019-03-11T03:38:30.414Z,35.60
2019-03-11T03:40:55.074Z,35.60
2019-03-11T03:43:23.553Z,35.90
2019-03-11T03:45:51.969Z,36.00
2019-03-11T03:48:20.397Z,36.50
2019-03-11T03:50:48.900Z,36.80
2019-03-11T03:53:17.316Z,37.10
2019-03-11T03:55:46.189Z,37.00
2019-03-11T03:58:14.590Z,37.70
2019-03-11T04:00:43.013Z,37.90
2019-03-11T04:03:11.427Z,38.00
2019-03-11T04:05:39.884Z,38.40
2019-03-11T04:08:08.438Z,38.70
2019-03-11T04:10:36.893Z,39.00
2019-03-11T04:13:05.318Z,39.10
2019-03-11T04:15:33.819Z,39.10
2019-03-11T04:18:02.432Z,39.20
2019-03-11T04:20:30.914Z,38.90
2019-03-11T04:23:00.039Z,39.10
2019-03-11T04:25:29.894Z,38.70
2019-03-11T04:27:58.780Z,38.10
2019-03-11T04:30:28.301Z,37.70
2019-03-11T04:32:56.747Z,37.50
2019-03-11T04:35:25.588Z,37.70
2019-03-11T04:37:54.151Z,37.90
2019-03-11T04:40:22.565Z,39.60
2019-03-11T04:42:51.043Z,39.30
2019-03-11T04:45:19.449Z,39.50
2019-03-11T04:47:47.897Z,39.90
2019-03-11T04:50:17.453Z,40.40
2019-03-11T04:52:46.075Z,40.50
2019-03-11T04:55:16.941Z,41.20
2019-03-11T04:57:53.154Z,42.30
2019-03-11T05:00:27.045Z,42.80
2019-03-11T05:02:55.541Z,43.10
2019-03-11T05:05:24.064Z,43.50
2019-03-11T05:07:52.466Z,43.40
2019-03-11T05:10:20.861Z,43.50
2019-03-11T05:12:49.323Z,43.20
2019-03-11T05:15:18.088Z,43.10
2019-03-11T05:17:48.456Z,43.00
2019-03-11T05:20:17.512Z,43.20
2019-03-11T05:22:45.993Z,42.70
2019-03-11T05:25:15.689Z,42.40
2019-03-11T05:27:45.309Z,42.30
2019-03-11T05:30:18.162Z,42.30
2019-03-11T05:32:46.842Z,42.80
2019-03-11T05:35:15.384Z,42.20
2019-03-11T05:37:43.823Z,41.90
2019-03-11T05:40:17.350Z,41.80
2019-03-11T05:42:45.829Z,42.20
2019-03-11T05:45:19.136Z,41.70
2019-03-11T05:47:47.925Z,41.60
2019-03-11T05:50:17.198Z,41.70
2019-03-11T05:52:45.681Z,41.90
2019-03-11T05:55:14.715Z,41.10
2019-03-11T05:57:43.205Z,41.10
2019-03-11T06:00:21.244Z,41.00
2019-03-11T06:02:49.686Z,41.20
2019-03-11T06:05:18.185Z,40.90
2019-03-11T06:07:46.938Z,40.50
2019-03-11T06:10:16.053Z,40.60
2019-03-11T06:12:44.534Z,40.60
2019-03-11T06:15:18.822Z,40.40
2019-03-11T06:17:47.298Z,40.30
2019-03-11T06:20:30.599Z,39.90
2019-03-11T06:23:00.339Z,40.00
2019-03-11T06:25:28.753Z,39.40
2019-03-11T06:27:57.186Z,40.50
2019-03-11T06:30:26.197Z,39.20
2019-03-11T06:32:55.020Z,38.90
2019-03-11T06:35:23.630Z,37.90
2019-03-11T06:37:54.030Z,38.80
2019-03-11T06:40:22.577Z,39.50
2019-03-11T06:42:51.037Z,44.10
2019-03-11T06:45:19.474Z,50.70
2019-03-11T06:47:48.025Z,52.20
2019-03-11T06:50:16.556Z,51.10
2019-03-11T06:52:45.071Z,51.70
2019-03-11T06:55:14.104Z,55.20
2019-03-11T06:57:42.691Z,58.80
2019-03-11T07:00:18.001Z,62.30
2019-03-11T07:02:46.478Z,63.10
2019-03-11T07:05:20.515Z,59.60
2019-03-11T07:07:45.465Z,57.90
2019-03-11T07:10:16.100Z,59.60
2019-03-11T07:12:44.635Z,63.10
2019-03-11T07:15:17.471Z,63.70
2019-03-11T07:17:46.926Z,62.70
2019-03-11T07:20:18.622Z,63.90
2019-03-11T07:22:47.305Z,62.60
2019-03-11T07:25:15.959Z,62.60
2019-03-11T07:27:44.381Z,61.50
2019-03-11T07:30:19.883Z,61.70
2019-03-11T07:32:48.439Z,62.00
2019-03-11T07:35:17.310Z,61.30
2019-03-11T07:37:45.793Z,60.80
2019-03-11T07:40:15.758Z,58.10
2019-03-11T07:42:44.930Z,58.90
2019-03-11T07:45:19.410Z,60.40
2019-03-11T07:47:47.835Z,60.80
2019-03-11T07:50:16.997Z,60.60
2019-03-11T07:52:45.763Z,59.50
2019-03-11T07:55:15.439Z,60.00
2019-03-11T07:57:44.166Z,59.50
2019-03-11T08:00:15.057Z,60.00
2019-03-11T08:02:43.580Z,59.30
2019-03-11T08:05:11.986Z,60.00
2019-03-11T08:07:40.480Z,60.00
2019-03-11T08:10:17.689Z,59.80
2019-03-11T08:12:46.137Z,59.70
2019-03-11T08:15:15.709Z,59.70
2019-03-11T08:17:44.154Z,59.60
2019-03-11T08:20:13.827Z,59.00
2019-03-11T08:22:42.342Z,57.90
2019-03-11T08:25:13.553Z,58.40
2019-03-11T08:27:42.025Z,58.00
2019-03-11T08:30:22.806Z,58.00
2019-03-11T08:32:51.283Z,56.90
2019-03-11T08:35:19.767Z,57.60
2019-03-11T08:37:48.351Z,56.80
2019-03-11T08:40:18.149Z,57.30
2019-03-11T08:42:46.864Z,56.80
2019-03-11T08:45:16.690Z,57.60
2019-03-11T08:47:45.279Z,57.10
2019-03-11T08:50:16.817Z,57.20
2019-03-11T08:52:45.599Z,57.40
2019-03-11T08:55:14.673Z,56.40
2019-03-11T08:57:43.445Z,56.10
2019-03-11T09:00:14.249Z,55.00
2019-03-11T09:02:42.764Z,55.10
2019-03-11T09:05:12.090Z,55.50
2019-03-11T09:07:40.573Z,53.80
2019-03-11T09:10:16.145Z,53.40
2019-03-11T09:12:44.950Z,54.00
2019-03-11T09:15:18.125Z,53.70
2019-03-11T09:17:46.750Z,54.60
2019-03-11T09:20:16.324Z,54.60
2019-03-11T09:22:44.888Z,55.70
2019-03-11T09:25:19.269Z,55.50
2019-03-11T09:27:50.471Z,54.40
2019-03-11T09:30:22.424Z,54.10
2019-03-11T09:32:50.926Z,56.00
2019-03-11T09:35:19.593Z,54.30
2019-03-11T09:37:48.177Z,54.80
2019-03-11T09:40:20.549Z,54.40
2019-03-11T09:42:49.205Z,55.20
2019-03-11T09:45:19.521Z,55.00
2019-03-11T09:47:48.326Z,55.70
2019-03-11T09:50:17.476Z,57.70
2019-03-11T09:52:46.073Z,61.50
2019-03-11T09:55:22.676Z,64.40
2019-03-11T09:57:51.358Z,64.70
2019-03-11T10:00:24.142Z,66.10
2019-03-11T10:02:53.571Z,65.50
2019-03-11T10:05:22.366Z,65.00
2019-03-11T10:07:52.960Z,61.90
2019-03-11T10:10:30.569Z,61.40
2019-03-11T10:12:59.432Z,60.40
2019-03-11T10:15:28.209Z,58.90
2019-03-11T10:17:56.700Z,59.90
2019-03-11T10:20:25.131Z,58.30
2019-03-11T10:22:53.565Z,58.30
2019-03-11T10:25:22.039Z,56.80
2019-03-11T10:27:51.097Z,57.40
2019-03-11T10:30:24.590Z,55.20
2019-03-11T10:32:53.308Z,54.10
2019-03-11T10:35:37.131Z,55.70
2019-03-11T10:37:51.977Z,53.50
2019-03-11T10:40:24.749Z,53.40
2019-03-11T10:42:53.273Z,53.00
2019-03-11T10:45:30.481Z,52.20
2019-03-11T10:47:52.015Z,50.80
2019-03-11T10:50:21.081Z,51.10
2019-03-11T10:52:49.673Z,48.00
2019-03-11T10:55:20.317Z,47.90
2019-03-11T10:57:48.830Z,46.30
2019-03-11T11:00:32.721Z,42.20
2019-03-11T11:03:03.882Z,43.30
2019-03-11T11:05:32.440Z,41.90
2019-03-11T11:08:00.975Z,41.10
2019-03-11T11:10:29.492Z,40.20
2019-03-11T11:12:58.057Z,36.40
2019-03-11T11:15:28.524Z,36.20
2019-03-11T11:17:57.125Z,36.00
2019-03-11T11:20:25.688Z,36.40
2019-03-11T11:22:54.957Z,33.30
2019-03-11T11:25:25.033Z,32.60
2019-03-11T11:27:53.554Z,37.20
2019-03-11T11:30:25.805Z,36.30
2019-03-11T11:32:54.536Z,41.60
2019-03-11T11:35:23.009Z,43.20
2019-03-11T11:37:51.808Z,43.30
2019-03-11T11:40:27.855Z,40.90
2019-03-11T11:42:56.356Z,40.70
2019-03-11T11:45:26.993Z,40.00
2019-03-11T11:47:55.820Z,39.30
2019-03-11T11:50:25.099Z,38.50
2019-03-11T11:52:53.730Z,39.00
2019-03-11T11:55:25.247Z,39.10
2019-03-11T11:57:54.146Z,39.70
2019-03-11T12:00:31.253Z,39.10
2019-03-11T12:02:59.866Z,38.80
2019-03-11T12:05:28.578Z,39.30
2019-03-11T12:07:57.058Z,38.20
2019-03-11T12:10:27.714Z,38.20
2019-03-11T12:12:56.531Z,38.30
2019-03-11T12:15:24.957Z,38.90
2019-03-11T12:17:53.757Z,38.50
2019-03-11T12:20:26.439Z,38.50
2019-03-11T12:22:54.953Z,38.60
2019-03-11T12:25:23.357Z,38.50
2019-03-11T12:27:54.139Z,38.90
2019-03-11T12:30:28.469Z,37.20
2019-03-11T12:32:57.215Z,36.10
2019-03-11T12:35:26.427Z,35.80
2019-03-11T12:37:55.073Z,35.40
2019-03-11T12:40:23.697Z,35.50
2019-03-11T12:42:52.380Z,34.80
2019-03-11T12:45:25.822Z,35.60
2019-03-11T12:47:55.418Z,36.20
2019-03-11T12:50:26.013Z,36.20
2019-03-11T12:52:54.524Z,32.80
2019-03-11T12:55:23.278Z,32.20
2019-03-11T12:57:51.768Z,31.30
2019-03-11T13:00:24.187Z,30.70
2019-03-11T13:02:52.756Z,30.10
2019-03-11T13:05:21.240Z,32.10
2019-03-11T13:07:49.737Z,37.90
2019-03-11T13:10:25.730Z,39.60
2019-03-11T13:12:54.307Z,40.10
2019-03-11T13:15:22.724Z,41.60
2019-03-11T13:17:51.514Z,41.60
2019-03-11T13:20:33.641Z,41.10
2019-03-11T13:23:02.057Z,39.90
2019-03-11T13:25:30.526Z,41.20
2019-03-11T13:27:58.923Z,40.40
2019-03-11T13:30:27.358Z,39.60
2019-03-11T13:32:55.921Z,38.40
2019-03-11T13:35:24.807Z,37.50
2019-03-11T13:37:53.437Z,37.30
2019-03-11T13:40:21.878Z,37.30
2019-03-11T13:42:50.364Z,36.90
2019-03-11T13:45:19.193Z,36.90
2019-03-11T13:47:47.685Z,35.60
2019-03-11T13:50:17.737Z,33.30
2019-03-11T13:52:46.239Z,33.70
2019-03-11T13:55:16.294Z,32.90
2019-03-11T13:57:44.785Z,31.40
2019-03-11T14:00:18.179Z,31.10
2019-03-11T14:02:46.682Z,31.00
2019-03-11T14:05:15.115Z,29.90
2019-03-11T14:07:43.560Z,30.60
2019-03-11T14:10:14.156Z,31.20
2019-03-11T14:12:42.695Z,31.40
2019-03-11T14:15:13.477Z,32.00
2019-03-11T14:17:41.969Z,30.40
2019-03-11T14:20:12.884Z,27.90
2019-03-11T14:22:41.279Z,28.00
2019-03-11T14:25:11.094Z,28.60
2019-03-11T14:27:39.492Z,29.20
2019-03-11T14:30:16.333Z,29.10
2019-03-11T14:32:44.865Z,30.00
2019-03-11T14:35:13.549Z,30.30
2019-03-11T14:37:41.949Z,32.50
2019-03-11T14:40:17.929Z,35.90
2019-03-11T14:42:46.327Z,37.50
2019-03-11T14:45:21.829Z,38.60
2019-03-11T14:47:50.357Z,38.30
2019-03-11T14:50:19.101Z,37.30
2019-03-11T14:52:47.507Z,37.60
2019-03-11T14:55:16.449Z,37.70
2019-03-11T14:57:45.174Z,37.60
2019-03-11T15:00:23.811Z,35.90
2019-03-11T15:02:52.285Z,35.30
2019-03-11T15:05:21.329Z,35.60
2019-03-11T15:07:49.870Z,34.40
2019-03-11T15:10:19.600Z,36.00
2019-03-11T15:12:48.261Z,34.60
2019-03-11T15:15:21.822Z,32.10
2019-03-11T15:17:50.222Z,32.50
2019-03-11T15:20:18.670Z,32.70
2019-03-11T15:22:47.164Z,33.50
2019-03-11T15:25:16.415Z,33.10
2019-03-11T15:27:45.141Z,33.20
2019-03-11T15:30:18.391Z,34.00
2019-03-11T15:32:46.845Z,34.10
2019-03-11T15:35:15.245Z,33.60
2019-03-11T15:37:43.646Z,33.50
2019-03-11T15:40:21.200Z,33.60
2019-03-11T15:42:49.594Z,34.50
2019-03-11T15:45:19.090Z,35.80
2019-03-11T15:47:47.469Z,37.30
2019-03-11T15:50:21.718Z,36.80
2019-03-11T15:52:50.107Z,36.70
2019-03-11T15:55:18.661Z,37.20
2019-03-11T15:57:47.118Z,36.00
2019-03-11T16:00:20.688Z,36.10
2019-03-11T16:02:49.217Z,35.60
2019-03-11T16:05:19.569Z,35.40
2019-03-11T16:07:48.512Z,35.00
2019-03-11T16:10:17.568Z,34.70
2019-03-11T16:12:46.369Z,35.10
2019-03-11T16:15:16.115Z,35.10
2019-03-11T16:17:44.536Z,34.70
2019-03-11T16:20:34.105Z,35.00
2019-03-11T16:23:02.800Z,35.60
2019-03-11T16:25:31.236Z,35.90
2019-03-11T16:27:59.657Z,36.40
2019-03-11T16:30:28.413Z,36.60
2019-03-11T16:33:00.445Z,37.50
2019-03-11T16:35:28.337Z,37.80
2019-03-11T16:37:56.858Z,38.20
2019-03-11T16:40:25.340Z,38.30
2019-03-11T16:42:53.769Z,37.10
2019-03-11T16:45:22.683Z,38.10
2019-03-11T16:47:51.188Z,39.10
2019-03-11T16:50:24.751Z,39.90
2019-03-11T16:52:53.220Z,40.50
2019-03-11T16:55:24.625Z,40.80
2019-03-11T16:57:53.820Z,40.60
2019-03-11T17:00:39.491Z,41.30
2019-03-11T17:03:08.614Z,41.20
2019-03-11T17:05:37.125Z,42.20
2019-03-11T17:08:05.840Z,42.70
2019-03-11T17:10:34.287Z,43.20
2019-03-11T17:13:02.808Z,43.30
2019-03-11T17:15:31.303Z,43.80
2019-03-11T17:17:59.740Z,43.50
2019-03-11T17:20:28.393Z,43.60
2019-03-11T17:22:56.878Z,43.70
2019-03-11T17:25:25.577Z,43.70
2019-03-11T17:27:54.279Z,44.10
2019-03-11T17:30:24.923Z,44.70
2019-03-11T17:32:53.507Z,45.10
2019-03-11T17:35:21.985Z,45.60
2019-03-11T17:37:50.460Z,46.40
2019-03-11T17:40:21.176Z,47.10
2019-03-11T17:42:49.882Z,47.60
2019-03-11T17:45:18.686Z,48.50
2019-03-11T17:47:47.207Z,49.30
2019-03-11T17:50:20.416Z,50.10
2019-03-11T17:52:49.241Z,51.20
2019-03-11T17:55:18.680Z,51.90
2019-03-11T17:57:47.332Z,52.50
2019-03-11T18:00:27.175Z,53.00
2019-03-11T18:02:55.853Z,53.20
2019-03-11T18:05:24.345Z,53.80
2019-03-11T18:07:52.745Z,53.90
2019-03-11T18:10:21.152Z,53.90
2019-03-11T18:12:49.558Z,54.00
2019-03-11T18:15:17.952Z,54.30
2019-03-11T18:17:46.381Z,54.40
2019-03-11T18:20:17.210Z,53.80
2019-03-11T18:22:45.682Z,53.50
2019-03-11T18:25:16.606Z,52.70
2019-03-11T18:27:45.269Z,52.30
2019-03-11T18:30:16.750Z,52.40
2019-03-11T18:32:45.174Z,52.20
2019-03-11T18:35:14.336Z,53.00
2019-03-11T18:37:42.847Z,54.10
2019-03-11T18:40:13.566Z,54.70
2019-03-11T18:42:42.024Z,55.70
2019-03-11T18:45:12.425Z,56.70
2019-03-11T18:47:41.030Z,57.10
2019-03-11T18:50:20.672Z,57.40
2019-03-11T18:52:49.097Z,58.00
2019-03-11T18:55:17.713Z,58.40
2019-03-11T18:57:46.234Z,58.70
2019-03-11T19:00:19.037Z,58.80
2019-03-11T19:02:47.558Z,59.00
2019-03-11T19:05:17.764Z,59.20
2019-03-11T19:07:46.373Z,59.50
2019-03-11T19:10:15.796Z,59.50
2019-03-11T19:12:44.628Z,59.40
2019-03-11T19:15:19.115Z,59.30
2019-03-11T19:17:47.629Z,59.20
2019-03-11T19:20:20.187Z,59.70
2019-03-11T19:22:48.715Z,59.70
2019-03-11T19:25:17.441Z,59.30
2019-03-11T19:27:46.327Z,59.10
2019-03-11T19:30:20.459Z,58.60
2019-03-11T19:32:48.989Z,58.10
2019-03-11T19:35:18.297Z,57.80
2019-03-11T19:37:46.965Z,57.70
2019-03-11T19:40:23.472Z,57.50
2019-03-11T19:42:52.150Z,56.50
2019-03-11T19:45:20.745Z,56.70
2019-03-11T19:47:49.400Z,56.30
2019-03-11T19:50:19.308Z,56.00
2019-03-11T19:52:58.008Z,55.80
2019-03-11T19:55:18.103Z,55.70
2019-03-11T19:57:46.805Z,55.20
2019-03-11T20:00:17.731Z,54.70
2019-03-11T20:02:46.338Z,54.60
2019-03-11T20:05:20.298Z,53.90
2019-03-11T20:07:49.078Z,53.70
2019-03-11T20:10:17.714Z,52.90
2019-03-11T20:12:46.195Z,52.60
2019-03-11T20:15:15.068Z,52.50
2019-03-11T20:17:43.626Z,52.50
2019-03-11T20:20:16.799Z,52.80
2019-03-11T20:22:45.368Z,52.50
2019-03-11T20:25:16.898Z,52.30
2019-03-11T20:27:45.523Z,52.40
2019-03-11T20:30:19.447Z,52.00
2019-03-11T20:32:48.275Z,51.70
2019-03-11T20:35:17.750Z,51.60
2019-03-11T20:37:46.691Z,51.70
2019-03-11T20:40:15.115Z,52.20
2019-03-11T20:42:43.865Z,52.50
2019-03-11T20:45:20.702Z,51.20
2019-03-11T20:47:49.885Z,51.40
2019-03-11T20:50:19.218Z,51.20
2019-03-11T20:52:47.728Z,50.50
2019-03-11T20:55:18.215Z,51.50
2019-03-11T20:57:46.769Z,50.80
2019-03-11T21:00:19.984Z,50.20
2019-03-11T21:02:49.011Z,50.20
2019-03-11T21:05:23.275Z,50.70
2019-03-11T21:07:51.779Z,50.90
2019-03-11T21:10:20.404Z,50.90
2019-03-11T21:12:48.934Z,50.90
2019-03-11T21:15:17.992Z,50.60
2019-03-11T21:17:46.554Z,50.90
2019-03-11T21:20:18.104Z,51.00
2019-03-11T21:22:46.713Z,51.20
2019-03-11T21:25:19.269Z,51.00
2019-03-11T21:27:47.894Z,50.90
2019-03-11T21:30:22.225Z,50.70
2019-03-11T21:32:50.665Z,50.40
2019-03-11T21:35:19.293Z,50.80
2019-03-11T21:37:47.933Z,51.00
2019-03-11T21:40:20.771Z,51.40
2019-03-11T21:42:49.628Z,51.20
2019-03-11T21:45:18.697Z,51.20
2019-03-11T21:47:49.571Z,50.80
2019-03-11T21:50:24.789Z,50.80
2019-03-11T21:52:53.954Z,50.80
2019-03-11T21:55:22.910Z,50.90
2019-03-11T21:57:51.644Z,50.60
2019-03-11T22:00:33.648Z,50.50
2019-03-11T22:02:54.760Z,50.60
2019-03-11T22:05:23.798Z,50.80
2019-03-11T22:07:52.425Z,50.30
2019-03-11T22:10:21.356Z,50.10
2019-03-11T22:12:49.846Z,50.30
2019-03-11T22:15:25.555Z,50.20
2019-03-11T22:17:54.003Z,50.00
2019-03-11T22:20:22.500Z,50.30
2019-03-11T22:22:51.025Z,49.90
2019-03-11T22:25:20.729Z,49.80
2019-03-11T22:27:49.362Z,49.50
2019-03-11T22:30:19.730Z,49.30
2019-03-11T22:32:48.293Z,49.90
2019-03-11T22:35:16.858Z,49.40
2019-03-11T22:37:45.378Z,49.00
2019-03-11T22:40:17.566Z,49.00
2019-03-11T22:42:47.911Z,48.80
2019-03-11T22:45:20.859Z,48.80
2019-03-11T22:47:51.299Z,48.10
2019-03-11T22:50:20.051Z,47.80
2019-03-11T22:52:48.784Z,47.90
2019-03-11T22:55:18.850Z,47.80
2019-03-11T22:57:47.338Z,47.80
2019-03-11T23:00:40.201Z,48.00
2019-03-11T23:03:09.183Z,48.20
2019-03-11T23:05:37.606Z,48.40
2019-03-11T23:08:06.162Z,48.70
2019-03-11T23:10:34.600Z,48.90
2019-03-11T23:13:03.081Z,49.00
2019-03-11T23:15:31.509Z,49.00
2019-03-11T23:18:00.118Z,49.00
2019-03-11T23:20:28.573Z,48.90
2019-03-11T23:22:57.005Z,48.90
2019-03-11T23:25:25.740Z,49.00
2019-03-11T23:27:54.216Z,48.70
2019-03-11T23:30:22.619Z,48.90
2019-03-11T23:32:51.008Z,48.90
2019-03-11T23:35:19.494Z,49.00
2019-03-11T23:37:47.891Z,49.20
2019-03-11T23:40:16.380Z,49.30
2019-03-11T23:42:44.833Z,49.30
2019-03-11T23:45:13.389Z,49.40
2019-03-11T23:47:41.825Z,49.10
2019-03-11T23:50:14.199Z,49.30
2019-03-11T23:52:42.636Z,49.30
2019-03-11T23:55:11.984Z,49.40
2019-03-11T23:57:40.364Z,49.20
